createdAt,value
2023-04-17T00:00:58.321Z,100614.69
2023-04-17T00:02:30.729Z,100606.63
2023-04-17T00:04:03.521Z,100616.50
2023-04-17T00:05:35.427Z,100610.38
2023-04-17T00:07:07.700Z,100618.44
2023-04-17T00:08:40.480Z,100609.50
2023-04-17T00:10:12.466Z,100611.34
2023-04-17T00:11:44.259Z,100610.50
2023-04-17T00:13:16.068Z,100605.13
2023-04-17T00:14:47.874Z,100606.81
2023-04-17T00:16:20.074Z,100605.97
2023-04-17T00:17:51.995Z,100608.66
2023-04-17T00:19:23.785Z,100602.31
2023-04-17T00:20:56.928Z,100613.06
2023-04-17T00:22:29.034Z,100612.13
2023-04-17T00:24:00.844Z,100612.13
2023-04-17T00:25:32.827Z,100613.06
2023-04-17T00:27:05.027Z,100607.69
2023-04-17T00:28:36.844Z,100609.50
2023-04-17T00:30:09.756Z,100611.34
2023-04-17T00:31:43.757Z,100608.66
2023-04-17T00:33:15.875Z,100604.25
2023-04-17T00:34:47.681Z,100603.41
2023-04-17T00:36:19.511Z,100606.09
2023-04-17T00:37:51.319Z,100611.53
2023-04-17T00:39:23.128Z,100606.19
2023-04-17T00:40:54.936Z,100612.53
2023-04-17T00:42:27.339Z,100618.84
2023-04-17T00:43:59.380Z,100607.34
2023-04-17T00:45:31.474Z,100604.75
2023-04-17T00:47:03.613Z,100606.59
2023-04-17T00:48:37.210Z,100609.28
2023-04-17T00:50:09.403Z,100603.16
2023-04-17T00:51:41.727Z,100610.34
2023-04-17T00:53:14.559Z,100608.53
2023-04-17T00:54:46.879Z,100614.00
2023-04-17T00:56:18.766Z,100609.47
2023-04-17T00:57:50.857Z,100613.16
2023-04-17T00:59:23.603Z,100612.28
2023-04-17T01:00:56.099Z,100612.28
2023-04-17T01:02:28.681Z,100606.91
2023-04-17T01:04:02.044Z,100614.13
2023-04-17T01:05:35.696Z,100604.22
2023-04-17T01:07:07.927Z,100603.38
2023-04-17T01:08:42.334Z,100599.72
2023-04-17T01:10:14.259Z,100603.38
2023-04-17T01:11:46.113Z,100610.44
2023-04-17T01:13:18.048Z,100605.09
2023-04-17T01:14:53.704Z,100610.34
2023-04-17T01:16:25.592Z,100610.44
2023-04-17T01:17:57.515Z,100614.13
2023-04-17T01:19:30.340Z,100605.16
2023-04-17T01:21:03.485Z,100612.38
2023-04-17T01:22:35.624Z,100614.19
2023-04-17T01:24:07.696Z,100614.31
2023-04-17T01:25:39.599Z,100617.09
2023-04-17T01:27:13.932Z,100614.31
2023-04-17T01:28:58.531Z,100609.25
2023-04-17T01:30:30.560Z,100612.56
2023-04-17T01:32:13.495Z,100604.72
2023-04-17T01:33:45.598Z,100612.78
2023-04-17T01:35:17.380Z,100613.75
2023-04-17T01:36:49.763Z,100607.66
2023-04-17T01:38:21.783Z,100604.97
2023-04-17T01:39:54.028Z,100608.59
2023-04-17T01:41:25.920Z,100610.41
2023-04-17T01:42:57.725Z,100608.59
2023-04-17T01:44:29.844Z,100606.84
2023-04-17T01:46:01.720Z,100611.44
2023-04-17T01:47:33.634Z,100614.25
2023-04-17T01:49:05.655Z,100615.09
2023-04-17T01:50:37.451Z,100612.63
2023-04-17T01:52:09.291Z,100617.13
2023-04-17T01:53:41.670Z,100613.59
2023-04-17T01:55:13.851Z,100612.75
2023-04-17T01:56:45.647Z,100611.84
2023-04-17T01:58:17.545Z,100611.84
2023-04-17T01:59:49.325Z,100609.28
2023-04-17T02:01:21.574Z,100614.75
2023-04-17T02:02:53.502Z,100606.69
2023-04-17T02:04:25.575Z,100616.47
2023-04-17T02:05:57.497Z,100606.69
2023-04-17T02:07:29.341Z,100607.56
2023-04-17T02:09:01.187Z,100615.72
2023-04-17T02:10:33.209Z,100613.03
2023-04-17T02:12:05.278Z,100615.72
2023-04-17T02:13:37.091Z,100614.84
2023-04-17T02:15:09.429Z,100614.00
2023-04-17T02:16:45.961Z,100617.53
2023-04-17T02:18:17.885Z,100619.38
2023-04-17T02:19:49.799Z,100615.84
2023-04-17T02:21:21.901Z,100621.19
2023-04-17T02:22:53.967Z,100614.00
2023-04-17T02:24:26.005Z,100615.84
2023-04-17T02:25:58.056Z,100625.59
2023-04-17T02:27:30.205Z,100617.53
2023-04-17T02:29:02.007Z,100619.25
2023-04-17T02:30:34.119Z,100621.09
2023-04-17T02:32:05.928Z,100625.59
2023-04-17T02:33:38.505Z,100622.78
2023-04-17T02:35:10.520Z,100619.16
2023-04-17T02:36:42.516Z,100625.47
2023-04-17T02:38:14.766Z,100626.25
2023-04-17T02:39:47.770Z,100623.69
2023-04-17T02:41:19.653Z,100622.78
2023-04-17T02:42:51.588Z,100620.09
2023-04-17T02:44:23.412Z,100618.31
2023-04-17T02:45:55.654Z,100622.78
2023-04-17T02:47:27.958Z,100628.16
2023-04-17T02:48:59.783Z,100622.78
2023-04-17T02:50:31.603Z,100617.53
2023-04-17T02:52:10.139Z,100615.72
2023-04-17T02:53:42.207Z,100618.41
2023-04-17T02:55:14.105Z,100620.09
2023-04-17T02:56:47.821Z,100621.09
2023-04-17T02:58:19.702Z,100618.41
2023-04-17T02:59:52.231Z,100621.09
2023-04-17T03:01:24.350Z,100624.75
2023-04-17T03:02:56.385Z,100615.72
2023-04-17T03:04:28.335Z,100613.16
2023-04-17T03:06:01.011Z,100609.56
2023-04-17T03:07:34.027Z,100612.25
2023-04-17T03:09:06.012Z,100614.94
2023-04-17T03:10:37.815Z,100616.78
2023-04-17T03:12:09.626Z,100611.41
2023-04-17T03:13:41.573Z,100609.56
2023-04-17T03:15:13.459Z,100612.25
2023-04-17T03:16:45.320Z,100613.22
2023-04-17T03:18:17.132Z,100617.63
2023-04-17T03:19:48.957Z,100616.69
2023-04-17T03:21:21.178Z,100614.94
2023-04-17T03:22:53.322Z,100618.50
2023-04-17T03:24:25.518Z,100614.00
2023-04-17T03:25:58.489Z,100618.50
2023-04-17T03:27:31.098Z,100617.53
2023-04-17T03:29:03.027Z,100617.53
2023-04-17T03:30:34.920Z,100618.41
2023-04-17T03:32:11.022Z,100618.41
2023-04-17T03:33:42.882Z,100620.22
2023-04-17T03:35:14.700Z,100620.22
2023-04-17T03:36:47.679Z,100623.69
2023-04-17T03:38:19.555Z,100618.41
2023-04-17T03:39:52.180Z,100622.78
2023-04-17T03:41:24.067Z,100620.09
2023-04-17T03:42:55.896Z,100619.25
2023-04-17T03:44:29.173Z,100617.44
2023-04-17T03:46:01.874Z,100621.00
2023-04-17T03:47:34.690Z,100624.53
2023-04-17T03:49:06.625Z,100629.06
2023-04-17T03:50:38.549Z,100627.22
2023-04-17T03:52:10.521Z,100628.16
2023-04-17T03:53:42.952Z,100626.25
2023-04-17T03:55:17.645Z,100621.00
2023-04-17T03:56:51.519Z,100627.22
2023-04-17T03:58:23.745Z,100634.31
2023-04-17T03:59:55.661Z,100626.25
2023-04-17T04:01:28.613Z,100631.63
2023-04-17T04:03:20.961Z,100628.94
2023-04-17T04:04:54.082Z,100632.59
2023-04-17T04:06:30.045Z,100632.59
2023-04-17T04:08:02.544Z,100637.00
2023-04-17T04:09:40.810Z,100637.00
2023-04-17T04:11:13.085Z,100635.28
2023-04-17T04:12:44.903Z,100634.44
2023-04-17T04:14:17.919Z,100639.78
2023-04-17T04:15:52.976Z,100634.44
2023-04-17T04:17:26.913Z,100643.41
2023-04-17T04:18:58.841Z,100652.34
2023-04-17T04:20:31.017Z,100644.28
2023-04-17T04:22:15.041Z,100649.66
2023-04-17T04:23:52.669Z,100651.41
2023-04-17T04:25:26.776Z,100655.03
2023-04-17T04:27:18.101Z,100653.09
2023-04-17T04:28:50.880Z,100648.72
2023-04-17T04:30:36.149Z,100653.09
2023-04-17T04:32:16.017Z,100647.75
2023-04-17T04:33:55.383Z,100648.59
2023-04-17T04:35:30.511Z,100651.28
2023-04-17T04:37:02.427Z,100653.03
2023-04-17T04:38:45.828Z,100653.09
2023-04-17T04:40:25.563Z,100651.19
2023-04-17T04:42:05.950Z,100653.88
2023-04-17T04:43:48.507Z,100649.25
2023-04-17T04:45:20.365Z,100655.59
2023-04-17T04:46:55.785Z,100662.66
2023-04-17T04:48:28.969Z,100660.97
2023-04-17T04:50:00.883Z,100663.66
2023-04-17T04:51:33.981Z,100665.34
2023-04-17T04:53:08.069Z,100654.63
2023-04-17T04:54:48.640Z,100663.53
2023-04-17T04:56:21.456Z,100668.81
2023-04-17T04:57:54.531Z,100667.97
2023-04-17T04:59:28.099Z,100668.81
2023-04-17T05:01:18.927Z,100666.91
2023-04-17T05:02:51.816Z,100671.38
2023-04-17T05:04:27.436Z,100672.28
2023-04-17T05:06:04.191Z,100673.03
2023-04-17T05:07:43.740Z,100674.88
2023-04-17T05:09:19.429Z,100669.50
2023-04-17T05:10:53.370Z,100675.72
2023-04-17T05:12:25.203Z,100676.59
2023-04-17T05:13:57.043Z,100672.09
2023-04-17T05:15:35.984Z,100681.88
2023-04-17T05:17:08.560Z,100672.09
2023-04-17T05:18:40.499Z,100675.66
2023-04-17T05:20:15.434Z,100678.22
2023-04-17T05:21:57.650Z,100688.88
2023-04-17T05:23:29.728Z,100683.38
2023-04-17T05:25:01.852Z,100683.38
2023-04-17T05:26:33.768Z,100685.09
2023-04-17T05:28:06.454Z,100679.66
2023-04-17T05:29:38.310Z,100689.41
2023-04-17T05:31:11.018Z,100696.41
2023-04-17T05:32:46.773Z,100691.91
2023-04-17T05:34:32.791Z,100688.16
2023-04-17T05:36:05.666Z,100702.44
2023-04-17T05:37:40.561Z,100690.63
2023-04-17T05:39:12.501Z,100687.19
2023-04-17T05:40:44.541Z,100693.31
2023-04-17T05:42:16.333Z,100696.00
2023-04-17T05:43:48.154Z,100704.06
2023-04-17T05:45:19.993Z,100699.69
2023-04-17T05:46:51.785Z,100697.72
2023-04-17T05:48:23.672Z,100699.69
2023-04-17T05:50:00.258Z,100702.38
2023-04-17T05:51:34.074Z,100705.91
2023-04-17T05:53:06.245Z,100705.03
2023-04-17T05:54:43.176Z,100705.91
2023-04-17T05:56:15.191Z,100711.28
2023-04-17T05:57:47.064Z,100712.13
2023-04-17T05:59:18.906Z,100717.59
2023-04-17T06:00:51.941Z,100714.91
2023-04-17T06:02:24.814Z,100716.00
2023-04-17T06:03:57.452Z,100714.25
2023-04-17T06:05:32.612Z,100707.16
2023-04-17T06:07:06.305Z,100717.06
2023-04-17T06:08:39.129Z,100710.06
2023-04-17T06:10:11.255Z,100708.34
2023-04-17T06:11:43.330Z,100711.97
2023-04-17T06:13:15.593Z,100711.97
2023-04-17T06:14:50.909Z,100710.25
2023-04-17T06:16:26.755Z,100719.16
2023-04-17T06:17:58.984Z,100715.81
2023-04-17T06:19:30.830Z,100721.19
2023-04-17T06:21:02.658Z,100718.63
2023-04-17T06:22:34.636Z,100715.09
2023-04-17T06:24:07.126Z,100716.88
2023-04-17T06:25:39.014Z,100721.31
2023-04-17T06:27:11.053Z,100718.72
2023-04-17T06:28:42.886Z,100730.31
2023-04-17T06:30:15.285Z,100732.06
2023-04-17T06:31:55.740Z,100726.56
2023-04-17T06:33:27.866Z,100730.97
2023-04-17T06:35:01.110Z,100732.72
2023-04-17T06:36:48.482Z,100729.91
2023-04-17T06:38:21.938Z,100741.44
2023-04-17T06:39:54.502Z,100729.63
2023-04-17T06:41:26.350Z,100743.78
2023-04-17T06:42:59.161Z,100737.47
2023-04-17T06:44:33.238Z,100740.84
2023-04-17T06:46:06.085Z,100741.56
2023-04-17T06:47:38.712Z,100741.50
2023-04-17T06:49:10.880Z,100749.53
2023-04-17T06:50:42.906Z,100753.09
2023-04-17T06:52:15.024Z,100747.59
2023-04-17T06:53:47.961Z,100751.25
2023-04-17T06:55:20.225Z,100750.28
2023-04-17T06:56:52.391Z,100749.44
2023-04-17T06:58:24.211Z,100760.19
2023-04-17T06:59:56.017Z,100751.25
2023-04-17T07:01:29.424Z,100766.53
2023-04-17T07:03:03.023Z,100757.59
2023-04-17T07:04:35.317Z,100755.84
2023-04-17T07:06:07.547Z,100763.84
2023-04-17T07:07:40.019Z,100766.53
2023-04-17T07:09:12.218Z,100767.38
2023-04-17T07:10:44.166Z,100768.25
2023-04-17T07:12:16.056Z,100768.25
2023-04-17T07:13:47.855Z,100773.72
2023-04-17T07:15:19.758Z,100779.97
2023-04-17T07:16:51.707Z,100780.03
2023-04-17T07:18:25.659Z,100780.16
2023-04-17T07:19:57.461Z,100781.41
2023-04-17T07:21:29.262Z,100779.69
2023-04-17T07:23:01.272Z,100770.19
2023-04-17T07:24:35.233Z,100792.75
2023-04-17T07:26:07.541Z,100784.91
2023-04-17T07:27:39.593Z,100794.84
2023-04-17T07:29:11.674Z,100793.13
2023-04-17T07:30:43.750Z,100797.72
2023-04-17T07:32:15.585Z,100796.88
2023-04-17T07:33:47.592Z,100804.06
2023-04-17T07:35:19.424Z,100803.09
2023-04-17T07:36:52.770Z,100802.13
2023-04-17T07:38:24.811Z,100805.66
2023-04-17T07:39:56.696Z,100808.19
2023-04-17T07:41:28.483Z,100800.91
2023-04-17T07:43:00.418Z,100809.75
2023-04-17T07:44:32.844Z,100810.50
2023-04-17T07:46:04.827Z,100810.41
2023-04-17T07:47:36.947Z,100807.63
2023-04-17T07:49:11.392Z,100815.47
2023-04-17T07:50:43.917Z,100817.09
2023-04-17T07:52:17.874Z,100814.09
2023-04-17T07:53:49.770Z,100822.84
2023-04-17T07:55:21.837Z,100812.78
2023-04-17T07:56:57.984Z,100813.44
2023-04-17T07:58:29.803Z,100824.72
2023-04-17T08:00:02.199Z,100817.25
2023-04-17T08:01:45.281Z,100820.59
2023-04-17T08:03:17.354Z,100816.72
2023-04-17T08:04:49.678Z,100823.63
2023-04-17T08:06:21.647Z,100818.16
2023-04-17T08:07:53.456Z,100822.56
2023-04-17T08:09:25.718Z,100826.69
2023-04-17T08:10:57.530Z,100826.56
2023-04-17T08:12:29.382Z,100830.78
2023-04-17T08:14:01.162Z,100832.31
2023-04-17T08:15:32.980Z,100834.88
2023-04-17T08:17:04.950Z,100839.09
2023-04-17T08:18:37.946Z,100836.22
2023-04-17T08:20:11.376Z,100834.25
2023-04-17T08:21:43.159Z,100836.88
2023-04-17T08:23:15.056Z,100845.69
2023-04-17T08:24:47.123Z,100839.25
2023-04-17T08:26:20.697Z,100845.38
2023-04-17T08:27:52.959Z,100843.56
2023-04-17T08:29:25.011Z,100847.88
2023-04-17T08:30:57.433Z,100845.06
2023-04-17T08:32:29.303Z,100848.53
2023-04-17T08:34:12.993Z,100850.16
2023-04-17T08:35:46.473Z,100849.06
2023-04-17T08:37:18.292Z,100854.34
2023-04-17T08:38:50.548Z,100858.66
2023-04-17T08:40:24.429Z,100859.53
2023-04-17T08:42:03.388Z,100854.16
2023-04-17T08:43:36.051Z,100856.84
2023-04-17T08:45:11.133Z,100856.06
2023-04-17T08:46:43.172Z,100861.44
2023-04-17T08:48:15.115Z,100859.63
2023-04-17T08:49:47.449Z,100863.06
2023-04-17T08:51:19.299Z,100864.59
2023-04-17T08:52:52.844Z,100860.84
2023-04-17T08:54:24.722Z,100863.31
2023-04-17T08:56:04.179Z,100860.41
2023-04-17T08:57:53.890Z,100861.06
2023-04-17T08:59:25.696Z,100863.38
2023-04-17T09:01:08.681Z,100868.63
2023-04-17T09:02:54.805Z,100865.88
2023-04-17T09:04:40.551Z,100866.59
2023-04-17T09:06:13.971Z,100872.75
2023-04-17T09:07:46.632Z,100870.25
2023-04-17T09:09:18.521Z,100866.94
2023-04-17T09:10:52.710Z,100871.25
2023-04-17T09:12:26.403Z,100872.41
2023-04-17T09:13:58.204Z,100875.28
2023-04-17T09:15:30.141Z,100868.28
2023-04-17T09:17:01.976Z,100876.44
2023-04-17T09:18:35.244Z,100873.97
2023-04-17T09:20:09.916Z,100879.34
2023-04-17T09:21:41.984Z,100873.09
2023-04-17T09:23:13.860Z,100884.63
2023-04-17T09:24:45.720Z,100874.84
2023-04-17T09:26:21.153Z,100879.91
2023-04-17T09:27:53.045Z,100881.53
2023-04-17T09:29:24.895Z,100888.53
2023-04-17T09:30:58.070Z,100887.59
2023-04-17T09:32:31.908Z,100882.75
2023-04-17T09:34:08.690Z,100882.53
2023-04-17T09:35:40.646Z,100893.00
2023-04-17T09:37:12.501Z,100891.94
2023-04-17T09:38:45.256Z,100888.06
2023-04-17T09:40:19.401Z,100892.25
2023-04-17T09:42:02.401Z,100887.44
2023-04-17T09:43:43.508Z,100887.09
2023-04-17T09:45:20.206Z,100893.91
2023-04-17T09:46:53.407Z,100888.31
2023-04-17T09:48:25.283Z,100882.06
2023-04-17T09:49:58.213Z,100886.47
2023-04-17T09:51:30.507Z,100886.47
2023-04-17T09:53:04.620Z,100893.69
2023-04-17T09:54:40.164Z,100886.56
2023-04-17T09:56:13.718Z,100892.91
2023-04-17T09:57:45.971Z,100892.16
2023-04-17T09:59:18.470Z,100894.84
2023-04-17T10:00:50.414Z,100893.91
2023-04-17T10:02:22.941Z,100895.63
2023-04-17T10:03:56.469Z,100889.25
2023-04-17T10:05:31.637Z,100894.53
2023-04-17T10:07:04.669Z,100899.06
2023-04-17T10:08:36.623Z,100891.84
2023-04-17T10:10:11.095Z,100897.13
2023-04-17T10:11:46.332Z,100893.69
2023-04-17T10:13:19.269Z,100896.47
2023-04-17T10:14:52.523Z,100893.03
2023-04-17T10:16:37.563Z,100897.78
2023-04-17T10:18:21.311Z,100896.16
2023-04-17T10:19:53.162Z,100897.09
2023-04-17T10:21:26.097Z,100896.47
2023-04-17T10:22:57.897Z,100905.63
2023-04-17T10:24:29.736Z,100902.16
2023-04-17T10:26:26.620Z,100897.84
2023-04-17T10:28:02.390Z,100895.81
2023-04-17T10:30:02.949Z,100891.28
2023-04-17T10:32:09.552Z,100894.53
2023-04-17T10:33:52.763Z,100892.41
2023-04-17T10:35:24.542Z,100887.19
2023-04-17T10:36:56.625Z,100898.44
2023-04-17T10:38:33.327Z,100892.59
2023-04-17T10:40:10.073Z,100891.00
2023-04-17T10:42:04.531Z,100892.38
2023-04-17T10:43:41.067Z,100891.50
2023-04-17T10:45:19.563Z,100893.53
2023-04-17T10:46:51.348Z,100892.88
2023-04-17T10:48:36.887Z,100891.31
2023-04-17T10:50:10.325Z,100887.91
2023-04-17T10:51:42.954Z,100894.44
2023-04-17T10:53:43.780Z,100883.41
2023-04-17T10:55:17.639Z,100879.06
2023-04-17T10:56:53.875Z,100889.41
2023-04-17T10:58:31.616Z,100884.63
2023-04-17T11:00:16.798Z,100889.94
2023-04-17T11:01:48.589Z,100885.28
2023-04-17T11:03:23.355Z,100886.25
2023-04-17T11:05:07.477Z,100887.22
2023-04-17T11:06:40.347Z,100890.78
2023-04-17T11:08:12.435Z,100897.16
2023-04-17T11:09:51.996Z,100895.78
2023-04-17T11:11:40.083Z,100896.75
2023-04-17T11:13:16.150Z,100897.00
2023-04-17T11:14:47.993Z,100899.78
2023-04-17T11:16:21.259Z,100893.75
2023-04-17T11:17:54.073Z,100890.34
2023-04-17T11:19:26.372Z,100894.75
2023-04-17T11:20:58.426Z,100901.00
2023-04-17T11:22:34.151Z,100898.94
2023-04-17T11:24:06.210Z,100893.09
2023-04-17T11:25:40.381Z,100897.41
2023-04-17T11:27:12.412Z,100891.53
2023-04-17T11:28:44.283Z,100895.59
2023-04-17T11:30:27.398Z,100895.13
2023-04-17T11:32:01.034Z,100894.44
2023-04-17T11:33:37.198Z,100899.28
2023-04-17T11:35:09.938Z,100900.19
2023-04-17T11:36:52.626Z,100907.81
2023-04-17T11:38:24.531Z,100911.53
2023-04-17T11:40:07.021Z,100906.53
2023-04-17T11:41:39.869Z,100907.78
2023-04-17T11:43:12.389Z,100913.56
2023-04-17T11:44:44.994Z,100909.06
2023-04-17T11:46:19.331Z,100914.69
2023-04-17T11:47:52.538Z,100913.56
2023-04-17T11:49:32.335Z,100903.88
2023-04-17T11:51:05.472Z,100913.84
2023-04-17T11:52:37.909Z,100904.34
2023-04-17T11:54:09.788Z,100911.94
2023-04-17T11:55:42.132Z,100911.53
2023-04-17T11:57:14.996Z,100913.72
2023-04-17T11:58:52.501Z,100911.59
2023-04-17T12:00:29.392Z,100910.97
2023-04-17T12:02:02.452Z,100914.91
2023-04-17T12:03:36.214Z,100915.59
2023-04-17T12:05:15.415Z,100906.22
2023-04-17T12:06:47.332Z,100908.53
2023-04-17T12:08:19.188Z,100904.34
2023-04-17T12:09:57.942Z,100912.91
2023-04-17T12:11:31.762Z,100899.50
2023-04-17T12:13:03.747Z,100911.50
2023-04-17T12:14:35.770Z,100917.13
2023-04-17T12:16:07.747Z,100920.19
2023-04-17T12:17:39.704Z,100919.66
2023-04-17T12:19:13.399Z,100917.31
2023-04-17T12:20:45.202Z,100919.13
2023-04-17T12:22:17.160Z,100913.31
2023-04-17T12:23:49.004Z,100917.84
2023-04-17T12:25:21.060Z,100918.06
2023-04-17T12:26:53.337Z,100911.94
2023-04-17T12:28:25.266Z,100914.66
2023-04-17T12:29:57.079Z,100916.22
2023-04-17T12:31:28.944Z,100916.00
2023-04-17T12:33:00.981Z,100914.06
2023-04-17T12:34:32.858Z,100921.94
2023-04-17T12:36:06.630Z,100918.91
2023-04-17T12:37:38.522Z,100923.97
2023-04-17T12:39:10.349Z,100919.53
2023-04-17T12:40:43.514Z,100918.34
2023-04-17T12:42:15.331Z,100921.91
2023-04-17T12:43:47.115Z,100920.91
2023-04-17T12:45:19.297Z,100919.06
2023-04-17T12:46:51.082Z,100926.44
2023-04-17T12:48:22.873Z,100920.06
2023-04-17T12:49:54.652Z,100919.97
2023-04-17T12:51:28.154Z,100920.91
2023-04-17T12:52:59.976Z,100922.66
2023-04-17T12:54:31.808Z,100921.78
2023-04-17T12:56:06.615Z,100915.44
2023-04-17T12:57:38.659Z,100915.28
2023-04-17T12:59:10.884Z,100927.81
2023-04-17T13:00:46.507Z,100920.38
2023-04-17T13:02:21.462Z,100914.97
2023-04-17T13:03:53.615Z,100921.09
2023-04-17T13:05:26.607Z,100921.09
2023-04-17T13:06:58.482Z,100920.25
2023-04-17T13:08:30.524Z,100931.88
2023-04-17T13:10:02.365Z,100928.56
2023-04-17T13:11:34.161Z,100926.72
2023-04-17T13:13:06.298Z,100922.75
2023-04-17T13:14:41.106Z,100932.78
2023-04-17T13:16:12.956Z,100927.75
2023-04-17T13:17:45.484Z,100932.50
2023-04-17T13:19:17.328Z,100935.31
2023-04-17T13:20:49.122Z,100933.72
2023-04-17T13:22:21.171Z,100932.97
2023-04-17T13:23:53.007Z,100933.72
2023-04-17T13:25:24.848Z,100937.16
2023-04-17T13:26:59.449Z,100930.03
2023-04-17T13:28:31.259Z,100931.88
2023-04-17T13:30:03.623Z,100936.19
2023-04-17T13:31:35.828Z,100942.75
2023-04-17T13:33:07.800Z,100934.56
2023-04-17T13:34:39.816Z,100948.06
2023-04-17T13:36:11.823Z,100945.22
2023-04-17T13:37:43.696Z,100940.81
2023-04-17T13:39:15.552Z,100949.91
2023-04-17T13:40:47.360Z,100945.47
2023-04-17T13:42:19.828Z,100944.59
2023-04-17T13:43:51.712Z,100943.75
2023-04-17T13:45:23.517Z,100942.03
2023-04-17T13:46:55.423Z,100939.34
2023-04-17T13:48:27.251Z,100948.28
2023-04-17T13:49:59.080Z,100939.22
2023-04-17T13:51:31.899Z,100940.06
2023-04-17T13:53:04.010Z,100946.44
2023-04-17T13:54:35.813Z,100940.28
2023-04-17T13:56:07.728Z,100933.94
2023-04-17T13:57:39.583Z,100936.72
2023-04-17T13:59:11.772Z,100944.94
2023-04-17T14:00:43.868Z,100943.19
2023-04-17T14:02:15.796Z,100943.19
2023-04-17T14:03:48.073Z,100944.41
2023-04-17T14:05:19.928Z,100943.44
2023-04-17T14:06:51.742Z,100942.56
2023-04-17T14:08:24.088Z,100940.00
2023-04-17T14:09:55.989Z,100943.44
2023-04-17T14:11:27.926Z,100944.09
2023-04-17T14:12:59.734Z,100933.19
2023-04-17T14:14:31.533Z,100939.44
2023-04-17T14:16:03.361Z,100942.13
2023-04-17T14:17:38.270Z,100935.88
2023-04-17T14:19:14.098Z,100937.50
2023-04-17T14:20:46.463Z,100936.63
2023-04-17T14:22:18.241Z,100941.03
2023-04-17T14:23:51.832Z,100932.09
2023-04-17T14:25:23.623Z,100934.78
2023-04-17T14:26:56.915Z,100933.72
2023-04-17T14:28:28.750Z,100936.28
2023-04-17T14:30:01.561Z,100940.81
2023-04-17T14:31:34.370Z,100935.31
2023-04-17T14:33:06.317Z,100929.06
2023-04-17T14:34:38.100Z,100940.81
2023-04-17T14:36:10.671Z,100941.81
2023-04-17T14:37:42.590Z,100948.16
2023-04-17T14:39:14.597Z,100940.19
2023-04-17T14:40:46.552Z,100943.09
2023-04-17T14:42:18.523Z,100945.91
2023-04-17T14:43:50.397Z,100941.50
2023-04-17T14:45:22.470Z,100942.56
2023-04-17T14:46:54.383Z,100940.97
2023-04-17T14:48:26.299Z,100934.81
2023-04-17T14:49:58.205Z,100945.69
2023-04-17T14:51:30.709Z,100948.53
2023-04-17T14:53:04.600Z,100938.72
2023-04-17T14:54:36.400Z,100945.84
2023-04-17T14:56:08.945Z,100952.94
2023-04-17T14:57:40.842Z,100940.22
2023-04-17T14:59:13.264Z,100946.59
2023-04-17T15:00:45.251Z,100948.41
2023-04-17T15:02:17.082Z,100946.69
2023-04-17T15:03:49.356Z,100958.56
2023-04-17T15:05:22.603Z,100954.13
2023-04-17T15:06:54.398Z,100947.94
2023-04-17T15:08:26.469Z,100946.34
2023-04-17T15:09:58.414Z,100955.53
2023-04-17T15:11:30.406Z,100947.75
2023-04-17T15:13:02.202Z,100945.19
2023-04-17T15:14:33.980Z,100950.56
2023-04-17T15:16:06.504Z,100959.63
2023-04-17T15:17:38.462Z,100953.47
2023-04-17T15:19:10.412Z,100955.09
2023-04-17T15:20:42.352Z,100958.66
2023-04-17T15:22:14.156Z,100951.34
2023-04-17T15:23:46.195Z,100954.97
2023-04-17T15:25:21.646Z,100962.34
2023-04-17T15:26:53.456Z,100958.75
2023-04-17T15:28:25.593Z,100962.44
2023-04-17T15:29:57.437Z,100962.44
2023-04-17T15:31:29.585Z,100964.38
2023-04-17T15:33:01.466Z,100965.47
2023-04-17T15:34:34.870Z,100964.69
2023-04-17T15:36:06.818Z,100956.81
2023-04-17T15:37:39.349Z,100962.56
2023-04-17T15:39:11.705Z,100964.41
2023-04-17T15:40:43.872Z,100966.41
2023-04-17T15:42:15.716Z,100958.31
2023-04-17T15:43:47.491Z,100965.03
2023-04-17T15:45:19.415Z,100964.59
2023-04-17T15:46:51.269Z,100968.16
2023-04-17T15:48:23.065Z,100967.72
2023-04-17T15:49:54.884Z,100964.81
2023-04-17T15:51:27.737Z,100962.75
2023-04-17T15:52:59.810Z,100969.50
2023-04-17T15:54:32.234Z,100961.94
2023-04-17T15:56:04.359Z,100966.88
2023-04-17T15:57:36.351Z,100968.28
2023-04-17T15:59:08.236Z,100974.84
2023-04-17T16:00:40.090Z,100976.97
2023-04-17T16:02:15.745Z,100974.66
2023-04-17T16:03:48.134Z,100974.09
2023-04-17T16:05:20.433Z,100972.66
2023-04-17T16:06:53.769Z,100970.50
2023-04-17T16:08:25.857Z,100983.38
2023-04-17T16:09:58.324Z,100981.09
2023-04-17T16:11:30.478Z,100984.16
2023-04-17T16:13:02.389Z,100976.53
2023-04-17T16:14:35.267Z,100983.16
2023-04-17T16:16:07.305Z,100980.88
2023-04-17T16:17:39.234Z,100970.41
2023-04-17T16:19:11.246Z,100977.03
2023-04-17T16:20:43.353Z,100974.63
2023-04-17T16:22:15.303Z,100979.34
2023-04-17T16:23:48.928Z,100971.59
2023-04-17T16:25:20.990Z,100978.00
2023-04-17T16:27:00.271Z,100974.53
2023-04-17T16:28:32.742Z,100979.06
2023-04-17T16:30:06.234Z,100977.34
2023-04-17T16:31:38.144Z,100976.47
2023-04-17T16:33:09.962Z,100983.56
2023-04-17T16:34:41.758Z,100973.69
2023-04-17T16:36:14.082Z,100975.50
2023-04-17T16:37:46.664Z,100971.97
2023-04-17T16:39:18.485Z,100981.75
2023-04-17T16:40:50.318Z,100978.31
2023-04-17T16:42:22.129Z,100981.75
2023-04-17T16:43:53.910Z,100976.47
2023-04-17T16:45:26.246Z,100981.00
2023-04-17T16:47:12.643Z,100982.06
2023-04-17T16:48:46.140Z,100974.06
2023-04-17T16:50:18.181Z,100979.66
2023-04-17T16:51:50.403Z,100985.97
2023-04-17T16:53:22.222Z,100983.47
2023-04-17T16:54:54.094Z,100985.41
2023-04-17T16:56:26.068Z,100983.84
2023-04-17T16:58:00.221Z,100986.00
2023-04-17T16:59:32.634Z,100986.19
2023-04-17T17:01:04.500Z,100983.69
2023-04-17T17:02:37.132Z,100990.09
2023-04-17T17:04:09.116Z,100987.72
2023-04-17T17:05:40.969Z,100996.81
2023-04-17T17:07:12.852Z,100992.47
2023-04-17T17:08:46.925Z,100997.09
2023-04-17T17:10:18.845Z,100998.19
2023-04-17T17:11:50.729Z,100996.47
2023-04-17T17:13:23.424Z,101004.72
2023-04-17T17:14:55.240Z,100994.16
2023-04-17T17:16:27.076Z,100997.88
2023-04-17T17:17:58.936Z,100996.25
2023-04-17T17:19:30.891Z,100998.19
2023-04-17T17:21:02.886Z,101001.03
2023-04-17T17:22:34.710Z,101000.25
2023-04-17T17:24:06.817Z,101001.22
2023-04-17T17:25:38.637Z,101001.41
2023-04-17T17:27:10.440Z,100999.69
2023-04-17T17:28:42.726Z,100996.22
2023-04-17T17:30:14.706Z,101002.56
2023-04-17T17:31:46.570Z,101008.00
2023-04-17T17:33:18.473Z,101001.00
2023-04-17T17:34:50.301Z,101000.25
2023-04-17T17:36:22.122Z,101006.56
2023-04-17T17:37:53.957Z,101005.84
2023-04-17T17:39:25.844Z,101005.97
2023-04-17T17:40:57.704Z,101007.84
2023-04-17T17:42:29.564Z,101007.09
2023-04-17T17:44:01.338Z,101014.31
2023-04-17T17:45:33.203Z,101014.47
2023-04-17T17:47:07.041Z,101011.78